sensor_id;sensor_type;location;lat;lon;timestamp;temperature;humidity
17053;DHT22;8643;48.824;11.422;2024-03-06T00:01:11;7.00;99.90
17053;DHT22;8643;48.824;11.422;2024-03-06T00:03:40;7.00;99.90
17053;DHT22;8643;48.824;11.422;2024-03-06T00:06:08;6.90;99.90
17053;DHT22;8643;48.824;11.422;2024-03-06T00:08:38;6.90;99.90
17053;DHT22;8643;48.824;11.422;2024-03-06T00:11:06;6.90;99.90
17053;DHT22;8643;48.824;11.422;2024-03-06T00:16:04;6.90;99.90
17053;DHT22;8643;48.824;11.422;2024-03-06T00:18:33;6.90;99.90
17053;DHT22;8643;48.824;11.422;2024-03-06T00:21:01;6.90;99.90
17053;DHT22;8643;48.824;11.422;2024-03-06T00:23:30;6.90;99.90
17053;DHT22;8643;48.824;11.422;2024-03-06T00:26:00;6.80;99.90
17053;DHT22;8643;48.824;11.422;2024-03-06T00:28:29;6.90;99.90
17053;DHT22;8643;48.824;11.422;2024-03-06T00:30:58;6.90;99.90
17053;DHT22;8643;48.824;11.422;2024-03-06T00:33:26;6.80;99.90
17053;DHT22;8643;48.824;11.422;2024-03-06T00:35:55;6.90;99.90
17053;DHT22;8643;48.824;11.422;2024-03-06T00:38:24;6.80;99.90
17053;DHT22;8643;48.824;11.422;2024-03-06T00:40:53;6.80;99.90
17053;DHT22;8643;48.824;11.422;2024-03-06T00:43:23;6.90;99.90
17053;DHT22;8643;48.824;11.422;2024-03-06T00:45:52;6.90;99.90
17053;DHT22;8643;48.824;11.422;2024-03-06T00:48:20;6.80;99.90
17053;DHT22;8643;48.824;11.422;2024-03-06T00:50:48;6.90;99.90
17053;DHT22;8643;48.824;11.422;2024-03-06T00:53:17;6.90;99.90
17053;DHT22;8643;48.824;11.422;2024-03-06T00:55:46;6.90;99.90
17053;DHT22;8643;48.824;11.422;2024-03-06T00:58:14;6.90;99.90
17053;DHT22;8643;48.824;11.422;2024-03-06T01:00:44;6.90;99.90
17053;DHT22;8643;48.824;11.422;2024-03-06T01:03:13;6.90;99.90
17053;DHT22;8643;48.824;11.422;2024-03-06T01:05:41;6.90;99.90
17053;DHT22;8643;48.824;11.422;2024-03-06T01:08:10;6.90;99.90
17053;DHT22;8643;48.824;11.422;2024-03-06T01:10:39;6.90;99.90
17053;DHT22;8643;48.824;11.422;2024-03-06T01:13:07;6.90;99.90
17053;DHT22;8643;48.824;11.422;2024-03-06T01:15:38;6.90;99.90
17053;DHT22;8643;48.824;11.422;2024-03-06T01:18:07;7.00;99.90
17053;DHT22;8643;48.824;11.422;2024-03-06T01:20:37;7.00;99.90
17053;DHT22;8643;48.824;11.422;2024-03-06T01:25:34;6.90;99.90
17053;DHT22;8643;48.824;11.422;2024-03-06T01:28:03;6.90;99.90
17053;DHT22;8643;48.824;11.422;2024-03-06T01:30:33;6.90;99.90
17053;DHT22;8643;48.824;11.422;2024-03-06T01:33:01;6.90;99.90
17053;DHT22;8643;48.824;11.422;2024-03-06T01:35:31;6.80;99.90
17053;DHT22;8643;48.824;11.422;2024-03-06T01:37:59;6.80;99.90
17053;DHT22;8643;48.824;11.422;2024-03-06T01:40:29;6.90;99.90
17053;DHT22;8643;48.824;11.422;2024-03-06T01:42:57;6.80;99.90
17053;DHT22;8643;48.824;11.422;2024-03-06T01:45:26;6.80;99.90
17053;DHT22;8643;48.824;11.422;2024-03-06T01:47:54;6.70;99.90
17053;DHT22;8643;48.824;11.422;2024-03-06T01:50:23;6.70;99.90
17053;DHT22;8643;48.824;11.422;2024-03-06T01:52:53;6.70;99.90
17053;DHT22;8643;48.824;11.422;2024-03-06T01:55:21;6.70;99.90
17053;DHT22;8643;48.824;11.422;2024-03-06T01:57:50;6.70;99.90
17053;DHT22;8643;48.824;11.422;2024-03-06T02:00:19;6.70;99.90
17053;DHT22;8643;48.824;11.422;2024-03-06T02:02:48;6.70;99.90
17053;DHT22;8643;48.824;11.422;2024-03-06T02:05:17;6.70;99.90
17053;DHT22;8643;48.824;11.422;2024-03-06T02:07:47;6.70;99.90
17053;DHT22;8643;48.824;11.422;2024-03-06T02:10:17;6.70;99.90
17053;DHT22;8643;48.824;11.422;2024-03-06T02:12:46;6.70;99.90
17053;DHT22;8643;48.824;11.422;2024-03-06T02:15:15;6.70;99.90
17053;DHT22;8643;48.824;11.422;2024-03-06T02:17:43;6.70;99.90
17053;DHT22;8643;48.824;11.422;2024-03-06T02:20:13;6.70;99.90
17053;DHT22;8643;48.824;11.422;2024-03-06T02:22:44;6.70;99.90
17053;DHT22;8643;48.824;11.422;2024-03-06T02:25:12;6.70;99.90
17053;DHT22;8643;48.824;11.422;2024-03-06T02:27:42;6.70;99.90
17053;DHT22;8643;48.824;11.422;2024-03-06T02:30:12;6.60;99.90
17053;DHT22;8643;48.824;11.422;2024-03-06T02:32:41;6.60;99.90
17053;DHT22;8643;48.824;11.422;2024-03-06T02:35:11;6.60;99.90
17053;DHT22;8643;48.824;11.422;2024-03-06T02:37:41;6.60;99.90
17053;DHT22;8643;48.824;11.422;2024-03-06T02:40:12;6.60;99.90
17053;DHT22;8643;48.824;11.422;2024-03-06T02:42:41;6.60;99.90
17053;DHT22;8643;48.824;11.422;2024-03-06T02:45:10;6.60;99.90
17053;DHT22;8643;48.824;11.422;2024-03-06T02:47:38;6.60;99.90
17053;DHT22;8643;48.824;11.422;2024-03-06T02:50:07;6.60;99.90
17053;DHT22;8643;48.824;11.422;2024-03-06T02:52:37;6.60;99.90
17053;DHT22;8643;48.824;11.422;2024-03-06T02:55:06;6.60;99.90
17053;DHT22;8643;48.824;11.422;2024-03-06T02:57:36;6.60;99.90
17053;DHT22;8643;48.824;11.422;2024-03-06T03:00:06;6.70;99.90
17053;DHT22;8643;48.824;11.422;2024-03-06T03:02:39;6.60;99.90
17053;DHT22;8643;48.824;11.422;2024-03-06T03:05:08;6.50;99.90
17053;DHT22;8643;48.824;11.422;2024-03-06T03:07:37;6.60;99.90
17053;DHT22;8643;48.824;11.422;2024-03-06T03:10:07;6.60;99.90
17053;DHT22;8643;48.824;11.422;2024-03-06T03:12:39;6.50;99.90
17053;DHT22;8643;48.824;11.422;2024-03-06T03:15:09;6.60;99.90
17053;DHT22;8643;48.824;11.422;2024-03-06T03:17:38;6.50;99.90
17053;DHT22;8643;48.824;11.422;2024-03-06T03:20:07;6.50;99.90
17053;DHT22;8643;48.824;11.422;2024-03-06T03:22:38;6.50;99.90
17053;DHT22;8643;48.824;11.422;2024-03-06T03:25:08;6.40;99.90
17053;DHT22;8643;48.824;11.422;2024-03-06T03:27:40;6.40;99.90
17053;DHT22;8643;48.824;11.422;2024-03-06T03:30:11;6.40;99.90
17053;DHT22;8643;48.824;11.422;2024-03-06T03:32:39;6.50;99.90
17053;DHT22;8643;48.824;11.422;2024-03-06T03:35:08;6.40;99.90
17053;DHT22;8643;48.824;11.422;2024-03-06T03:37:36;6.50;99.90
17053;DHT22;8643;48.824;11.422;2024-03-06T03:40:07;6.50;99.90
17053;DHT22;8643;48.824;11.422;2024-03-06T03:42:40;6.50;99.90
17053;DHT22;8643;48.824;11.422;2024-03-06T03:45:09;6.50;99.90
17053;DHT22;8643;48.824;11.422;2024-03-06T03:47:37;6.60;99.90
17053;DHT22;8643;48.824;11.422;2024-03-06T03:50:06;6.60;99.90
17053;DHT22;8643;48.824;11.422;2024-03-06T03:52:37;6.60;99.90
17053;DHT22;8643;48.824;11.422;2024-03-06T03:55:09;6.60;99.90
17053;DHT22;8643;48.824;11.422;2024-03-06T03:57:39;6.60;99.90
17053;DHT22;8643;48.824;11.422;2024-03-06T04:00:08;6.60;99.90
17053;DHT22;8643;48.824;11.422;2024-03-06T04:02:39;6.60;99.90
17053;DHT22;8643;48.824;11.422;2024-03-06T04:05:08;6.50;99.90
17053;DHT22;8643;48.824;11.422;2024-03-06T04:07:38;6.50;99.90
17053;DHT22;8643;48.824;11.422;2024-03-06T04:10:07;6.70;99.90
17053;DHT22;8643;48.824;11.422;2024-03-06T04:12:40;6.60;99.90
17053;DHT22;8643;48.824;11.422;2024-03-06T04:15:09;6.60;99.90
17053;DHT22;8643;48.824;11.422;2024-03-06T04:17:37;6.60;99.90
17053;DHT22;8643;48.824;11.422;2024-03-06T04:20:09;6.60;99.90
17053;DHT22;8643;48.824;11.422;2024-03-06T04:22:40;6.60;99.90
17053;DHT22;8643;48.824;11.422;2024-03-06T04:25:08;7.80;99.90
17053;DHT22;8643;48.824;11.422;2024-03-06T04:27:37;6.70;99.90
17053;DHT22;8643;48.824;11.422;2024-03-06T04:30:08;6.70;99.90
17053;DHT22;8643;48.824;11.422;2024-03-06T04:32:37;6.70;99.90
17053;DHT22;8643;48.824;11.422;2024-03-06T04:35:06;6.70;99.90
17053;DHT22;8643;48.824;11.422;2024-03-06T04:37:36;6.70;99.90
17053;DHT22;8643;48.824;11.422;2024-03-06T04:40:05;6.70;99.90
17053;DHT22;8643;48.824;11.422;2024-03-06T04:42:35;6.70;99.90
17053;DHT22;8643;48.824;11.422;2024-03-06T04:45:11;6.60;99.90
17053;DHT22;8643;48.824;11.422;2024-03-06T04:47:43;6.70;99.90
17053;DHT22;8643;48.824;11.422;2024-03-06T04:50:12;6.70;99.90
17053;DHT22;8643;48.824;11.422;2024-03-06T04:52:43;6.70;99.90
17053;DHT22;8643;48.824;11.422;2024-03-06T04:55:12;6.70;99.90
17053;DHT22;8643;48.824;11.422;2024-03-06T04:57:43;6.70;99.90
17053;DHT22;8643;48.824;11.422;2024-03-06T05:00:16;6.70;99.90
17053;DHT22;8643;48.824;11.422;2024-03-06T05:02:45;6.70;99.90
17053;DHT22;8643;48.824;11.422;2024-03-06T05:05:34;6.70;99.90
17053;DHT22;8643;48.824;11.422;2024-03-06T05:08:20;6.60;99.90
17053;DHT22;8643;48.824;11.422;2024-03-06T05:11:06;6.60;99.90
17053;DHT22;8643;48.824;11.422;2024-03-06T05:13:52;6.60;99.90
17053;DHT22;8643;48.824;11.422;2024-03-06T05:16:39;6.60;99.90
17053;DHT22;8643;48.824;11.422;2024-03-06T05:19:25;6.60;99.90
17053;DHT22;8643;48.824;11.422;2024-03-06T05:22:16;6.60;99.90
17053;DHT22;8643;48.824;11.422;2024-03-06T05:25:03;6.60;99.90
17053;DHT22;8643;48.824;11.422;2024-03-06T05:27:49;6.60;99.90
17053;DHT22;8643;48.824;11.422;2024-03-06T05:30:36;6.50;99.90
17053;DHT22;8643;48.824;11.422;2024-03-06T05:33:23;6.50;99.90
17053;DHT22;8643;48.824;11.422;2024-03-06T05:36:11;6.50;99.90
17053;DHT22;8643;48.824;11.422;2024-03-06T05:38:58;6.50;99.90
17053;DHT22;8643;48.824;11.422;2024-03-06T05:41:43;6.50;99.90
17053;DHT22;8643;48.824;11.422;2024-03-06T05:44:29;6.50;99.90
17053;DHT22;8643;48.824;11.422;2024-03-06T05:47:16;6.50;99.90
17053;DHT22;8643;48.824;11.422;2024-03-06T05:50:04;6.50;99.90
17053;DHT22;8643;48.824;11.422;2024-03-06T05:52:51;6.50;99.90
17053;DHT22;8643;48.824;11.422;2024-03-06T05:55:37;6.40;99.90
17053;DHT22;8643;48.824;11.422;2024-03-06T05:58:23;6.40;99.90
17053;DHT22;8643;48.824;11.422;2024-03-06T06:00:52;6.50;99.90
17053;DHT22;8643;48.824;11.422;2024-03-06T06:03:20;6.50;99.90
17053;DHT22;8643;48.824;11.422;2024-03-06T06:05:50;6.50;99.90
17053;DHT22;8643;48.824;11.422;2024-03-06T06:08:19;6.50;99.90
17053;DHT22;8643;48.824;11.422;2024-03-06T06:10:48;6.60;99.90
17053;DHT22;8643;48.824;11.422;2024-03-06T06:13:18;6.60;99.90
17053;DHT22;8643;48.824;11.422;2024-03-06T06:15:48;6.60;99.90
17053;DHT22;8643;48.824;11.422;2024-03-06T06:18:16;6.60;99.90
17053;DHT22;8643;48.824;11.422;2024-03-06T06:20:45;6.70;99.90
17053;DHT22;8643;48.824;11.422;2024-03-06T06:23:15;6.70;99.90
17053;DHT22;8643;48.824;11.422;2024-03-06T06:25:44;6.70;99.90
17053;DHT22;8643;48.824;11.422;2024-03-06T06:28:13;6.70;99.90
17053;DHT22;8643;48.824;11.422;2024-03-06T06:30:43;6.80;99.90
17053;DHT22;8643;48.824;11.422;2024-03-06T06:33:12;6.80;99.90
17053;DHT22;8643;48.824;11.422;2024-03-06T06:35:41;6.90;99.90
17053;DHT22;8643;48.824;11.422;2024-03-06T06:38:09;6.90;99.90
17053;DHT22;8643;48.824;11.422;2024-03-06T06:40:39;7.00;99.90
17053;DHT22;8643;48.824;11.422;2024-03-06T06:43:08;7.10;99.90
17053;DHT22;8643;48.824;11.422;2024-03-06T06:45:42;7.20;99.90
17053;DHT22;8643;48.824;11.422;2024-03-06T06:48:11;7.10;99.90
17053;DHT22;8643;48.824;11.422;2024-03-06T06:50:39;7.40;99.90
17053;DHT22;8643;48.824;11.422;2024-03-06T06:53:08;7.50;99.90
17053;DHT22;8643;48.824;11.422;2024-03-06T06:55:37;5.70;99.90
17053;DHT22;8643;48.824;11.422;2024-03-06T06:58:07;7.60;99.90
17053;DHT22;8643;48.824;11.422;2024-03-06T07:00:35;7.60;99.90
17053;DHT22;8643;48.824;11.422;2024-03-06T07:03:04;7.70;99.90
17053;DHT22;8643;48.824;11.422;2024-03-06T07:05:34;7.70;99.90
17053;DHT22;8643;48.824;11.422;2024-03-06T07:08:02;7.80;99.90
17053;DHT22;8643;48.824;11.422;2024-03-06T07:10:31;7.80;99.90
17053;DHT22;8643;48.824;11.422;2024-03-06T07:13:01;7.80;99.90
17053;DHT22;8643;48.824;11.422;2024-03-06T07:15:34;7.90;99.90
17053;DHT22;8643;48.824;11.422;2024-03-06T07:18:03;7.90;99.90
17053;DHT22;8643;48.824;11.422;2024-03-06T07:20:33;7.90;99.90
17053;DHT22;8643;48.824;11.422;2024-03-06T07:23:01;8.00;99.90
17053;DHT22;8643;48.824;11.422;2024-03-06T07:25:30;7.90;99.90
17053;DHT22;8643;48.824;11.422;2024-03-06T07:27:58;7.90;99.90
17053;DHT22;8643;48.824;11.422;2024-03-06T07:32:58;8.00;99.90
17053;DHT22;8643;48.824;11.422;2024-03-06T07:35:28;8.00;99.90
17053;DHT22;8643;48.824;11.422;2024-03-06T07:37:56;8.00;99.90
17053;DHT22;8643;48.824;11.422;2024-03-06T07:42:55;7.90;99.90
17053;DHT22;8643;48.824;11.422;2024-03-06T07:45:25;7.90;99.90
17053;DHT22;8643;48.824;11.422;2024-03-06T07:47:54;7.80;99.90
17053;DHT22;8643;48.824;11.422;2024-03-06T07:50:23;7.90;99.90
17053;DHT22;8643;48.824;11.422;2024-03-06T07:52:53;7.90;99.90
17053;DHT22;8643;48.824;11.422;2024-03-06T07:55:23;7.90;99.90
17053;DHT22;8643;48.824;11.422;2024-03-06T08:00:20;8.10;99.90
17053;DHT22;8643;48.824;11.422;2024-03-06T08:02:51;8.20;99.90
17053;DHT22;8643;48.824;11.422;2024-03-06T08:05:20;8.20;99.90
17053;DHT22;8643;48.824;11.422;2024-03-06T08:07:49;8.40;99.90
17053;DHT22;8643;48.824;11.422;2024-03-06T08:10:18;8.50;99.90
17053;DHT22;8643;48.824;11.422;2024-03-06T08:12:46;8.40;99.90
17053;DHT22;8643;48.824;11.422;2024-03-06T08:15:16;8.60;99.90
17053;DHT22;8643;48.824;11.422;2024-03-06T08:17:45;8.70;99.90
17053;DHT22;8643;48.824;11.422;2024-03-06T08:20:15;8.80;99.90
17053;DHT22;8643;48.824;11.422;2024-03-06T08:22:44;8.90;99.90
17053;DHT22;8643;48.824;11.422;2024-03-06T08:25:13;9.00;99.90
17053;DHT22;8643;48.824;11.422;2024-03-06T08:27:42;9.10;99.90
17053;DHT22;8643;48.824;11.422;2024-03-06T08:30:11;9.10;99.90
17053;DHT22;8643;48.824;11.422;2024-03-06T08:32:40;8.20;99.90
17053;DHT22;8643;48.824;11.422;2024-03-06T08:35:12;9.20;99.90
17053;DHT22;8643;48.824;11.422;2024-03-06T08:37:49;9.30;99.90
17053;DHT22;8643;48.824;11.422;2024-03-06T08:40:18;9.30;99.90
17053;DHT22;8643;48.824;11.422;2024-03-06T08:42:47;9.30;99.90
17053;DHT22;8643;48.824;11.422;2024-03-06T08:45:17;9.30;99.90
17053;DHT22;8643;48.824;11.422;2024-03-06T08:47:46;9.30;99.90
17053;DHT22;8643;48.824;11.422;2024-03-06T08:50:16;9.40;99.90
17053;DHT22;8643;48.824;11.422;2024-03-06T08:52:45;9.50;99.90
17053;DHT22;8643;48.824;11.422;2024-03-06T08:55:16;9.60;99.90
17053;DHT22;8643;48.824;11.422;2024-03-06T08:57:45;9.50;99.90
17053;DHT22;8643;48.824;11.422;2024-03-06T09:00:14;9.50;99.90
17053;DHT22;8643;48.824;11.422;2024-03-06T09:02:45;9.50;99.90
17053;DHT22;8643;48.824;11.422;2024-03-06T09:05:14;9.40;99.90
17053;DHT22;8643;48.824;11.422;2024-03-06T09:07:43;9.40;99.90
17053;DHT22;8643;48.824;11.422;2024-03-06T09:10:13;9.40;99.90
17053;DHT22;8643;48.824;11.422;2024-03-06T09:12:42;9.30;99.90
17053;DHT22;8643;48.824;11.422;2024-03-06T09:15:11;9.20;99.90
17053;DHT22;8643;48.824;11.422;2024-03-06T09:17:40;9.10;99.90
17053;DHT22;8643;48.824;11.422;2024-03-06T09:20:10;7.80;99.90
17053;DHT22;8643;48.824;11.422;2024-03-06T09:22:41;9.00;99.90
17053;DHT22;8643;48.824;11.422;2024-03-06T09:25:14;8.90;99.90
17053;DHT22;8643;48.824;11.422;2024-03-06T09:27:43;8.90;99.90
17053;DHT22;8643;48.824;11.422;2024-03-06T09:30:13;8.90;99.90
17053;DHT22;8643;48.824;11.422;2024-03-06T09:32:43;8.90;99.90
17053;DHT22;8643;48.824;11.422;2024-03-06T09:35:12;9.00;99.90
17053;DHT22;8643;48.824;11.422;2024-03-06T09:37:45;9.10;99.90
17053;DHT22;8643;48.824;11.422;2024-03-06T09:40:23;9.10;99.90
17053;DHT22;8643;48.824;11.422;2024-03-06T09:42:52;9.10;99.90
17053;DHT22;8643;48.824;11.422;2024-03-06T09:45:21;9.10;99.90
17053;DHT22;8643;48.824;11.422;2024-03-06T09:47:51;9.20;99.90
17053;DHT22;8643;48.824;11.422;2024-03-06T09:50:23;9.20;99.90
17053;DHT22;8643;48.824;11.422;2024-03-06T09:52:55;9.10;99.90
17053;DHT22;8643;48.824;11.422;2024-03-06T09:55:26;9.10;99.90
17053;DHT22;8643;48.824;11.422;2024-03-06T09:57:55;9.20;99.90
17053;DHT22;8643;48.824;11.422;2024-03-06T10:00:25;9.30;99.90
17053;DHT22;8643;48.824;11.422;2024-03-06T10:02:57;9.30;99.90
17053;DHT22;8643;48.824;11.422;2024-03-06T10:05:28;9.40;99.90
17053;DHT22;8643;48.824;11.422;2024-03-06T10:08:00;9.80;99.90
17053;DHT22;8643;48.824;11.422;2024-03-06T10:10:30;9.80;99.90
17053;DHT22;8643;48.824;11.422;2024-03-06T10:12:59;9.90;99.90
17053;DHT22;8643;48.824;11.422;2024-03-06T10:15:28;10.10;99.90
17053;DHT22;8643;48.824;11.422;2024-03-06T10:18:11;10.20;99.90
17053;DHT22;8643;48.824;11.422;2024-03-06T10:20:41;10.40;99.90
17053;DHT22;8643;48.824;11.422;2024-03-06T10:23:12;10.50;99.90
17053;DHT22;8643;48.824;11.422;2024-03-06T10:25:44;10.40;99.90
17053;DHT22;8643;48.824;11.422;2024-03-06T10:28:19;10.30;99.90
17053;DHT22;8643;48.824;11.422;2024-03-06T10:30:50;10.20;99.90
17053;DHT22;8643;48.824;11.422;2024-03-06T10:33:20;10.20;99.90
17053;DHT22;8643;48.824;11.422;2024-03-06T10:35:49;10.30;99.90
17053;DHT22;8643;48.824;11.422;2024-03-06T10:38:20;10.30;99.90
17053;DHT22;8643;48.824;11.422;2024-03-06T10:40:51;10.40;99.90
17053;DHT22;8643;48.824;11.422;2024-03-06T10:43:21;10.40;99.90
17053;DHT22;8643;48.824;11.422;2024-03-06T10:45:57;10.50;99.90
17053;DHT22;8643;48.824;11.422;2024-03-06T10:48:29;10.60;99.90
17053;DHT22;8643;48.824;11.422;2024-03-06T10:50:59;10.60;99.90
17053;DHT22;8643;48.824;11.422;2024-03-06T10:53:30;10.80;99.90
17053;DHT22;8643;48.824;11.422;2024-03-06T10:56:04;11.40;99.90
17053;DHT22;8643;48.824;11.422;2024-03-06T10:58:38;11.80;99.90
17053;DHT22;8643;48.824;11.422;2024-03-06T11:01:09;12.30;99.90
17053;DHT22;8643;48.824;11.422;2024-03-06T11:03:40;12.30;99.90
17053;DHT22;8643;48.824;11.422;2024-03-06T11:06:09;12.50;99.90
17053;DHT22;8643;48.824;11.422;2024-03-06T11:08:38;12.50;99.90
17053;DHT22;8643;48.824;11.422;2024-03-06T11:11:22;12.10;99.90
17053;DHT22;8643;48.824;11.422;2024-03-06T11:13:55;11.90;99.90
17053;DHT22;8643;48.824;11.422;2024-03-06T11:16:29;11.90;99.90
17053;DHT22;8643;48.824;11.422;2024-03-06T11:19:07;11.60;99.90
17053;DHT22;8643;48.824;11.422;2024-03-06T11:21:46;11.50;99.90
17053;DHT22;8643;48.824;11.422;2024-03-06T11:24:20;11.50;99.90
17053;DHT22;8643;48.824;11.422;2024-03-06T11:26:55;11.30;99.90
17053;DHT22;8643;48.824;11.422;2024-03-06T11:30:05;11.20;99.90
17053;DHT22;8643;48.824;11.422;2024-03-06T11:32:38;11.20;99.90
17053;DHT22;8643;48.824;11.422;2024-03-06T11:35:27;11.20;99.90
17053;DHT22;8643;48.824;11.422;2024-03-06T11:37:58;12.20;99.90
17053;DHT22;8643;48.824;11.422;2024-03-06T11:40:28;13.50;99.90
17053;DHT22;8643;48.824;11.422;2024-03-06T11:43:24;14.40;99.90
17053;DHT22;8643;48.824;11.422;2024-03-06T11:46:07;15.30;99.90
17053;DHT22;8643;48.824;11.422;2024-03-06T11:48:37;15.40;99.90
17053;DHT22;8643;48.824;11.422;2024-03-06T11:51:06;15.40;98.50
17053;DHT22;8643;48.824;11.422;2024-03-06T11:53:35;15.40;99.10
17053;DHT22;8643;48.824;11.422;2024-03-06T11:56:06;15.00;99.90
17053;DHT22;8643;48.824;11.422;2024-03-06T11:58:35;14.10;99.90
17053;DHT22;8643;48.824;11.422;2024-03-06T12:01:06;14.00;99.90
17053;DHT22;8643;48.824;11.422;2024-03-06T12:03:35;12.70;99.90
17053;DHT22;8643;48.824;11.422;2024-03-06T12:06:05;12.10;99.90
17053;DHT22;8643;48.824;11.422;2024-03-06T12:08:34;11.70;99.90
17053;DHT22;8643;48.824;11.422;2024-03-06T12:11:05;11.40;99.90
17053;DHT22;8643;48.824;11.422;2024-03-06T12:13:35;11.00;99.90
17053;DHT22;8643;48.824;11.422;2024-03-06T12:16:06;10.70;99.90
17053;DHT22;8643;48.824;11.422;2024-03-06T12:18:36;10.50;99.90
17053;DHT22;8643;48.824;11.422;2024-03-06T12:21:05;10.30;99.90
17053;DHT22;8643;48.824;11.422;2024-03-06T12:23:34;10.20;99.90
17053;DHT22;8643;48.824;11.422;2024-03-06T12:26:04;10.10;99.90
17053;DHT22;8643;48.824;11.422;2024-03-06T12:28:36;10.00;99.90
17053;DHT22;8643;48.824;11.422;2024-03-06T12:31:07;9.90;99.90
17053;DHT22;8643;48.824;11.422;2024-03-06T12:33:36;9.90;99.90
17053;DHT22;8643;48.824;11.422;2024-03-06T12:36:07;10.00;99.90
17053;DHT22;8643;48.824;11.422;2024-03-06T12:38:37;10.00;99.90
17053;DHT22;8643;48.824;11.422;2024-03-06T12:41:06;10.00;99.90
17053;DHT22;8643;48.824;11.422;2024-03-06T12:43:35;9.90;99.90
17053;DHT22;8643;48.824;11.422;2024-03-06T12:46:04;10.00;99.90
17053;DHT22;8643;48.824;11.422;2024-03-06T12:48:35;10.10;99.90
17053;DHT22;8643;48.824;11.422;2024-03-06T12:51:04;10.10;99.90
17053;DHT22;8643;48.824;11.422;2024-03-06T12:53:33;10.20;99.90
17053;DHT22;8643;48.824;11.422;2024-03-06T12:56:03;10.20;99.90
17053;DHT22;8643;48.824;11.422;2024-03-06T12:58:32;10.20;99.90
17053;DHT22;8643;48.824;11.422;2024-03-06T13:01:02;10.20;99.90
17053;DHT22;8643;48.824;11.422;2024-03-06T13:03:33;10.10;99.90
17053;DHT22;8643;48.824;11.422;2024-03-06T13:06:02;10.10;99.90
17053;DHT22;8643;48.824;11.422;2024-03-06T13:08:32;10.00;99.90
17053;DHT22;8643;48.824;11.422;2024-03-06T13:11:01;10.00;99.90
17053;DHT22;8643;48.824;11.422;2024-03-06T13:13:30;10.00;99.90
17053;DHT22;8643;48.824;11.422;2024-03-06T13:16:01;9.90;99.90
17053;DHT22;8643;48.824;11.422;2024-03-06T13:18:35;9.90;99.90
17053;DHT22;8643;48.824;11.422;2024-03-06T13:21:04;9.90;99.90
17053;DHT22;8643;48.824;11.422;2024-03-06T13:23:33;9.80;99.90
17053;DHT22;8643;48.824;11.422;2024-03-06T13:26:02;9.90;99.90
17053;DHT22;8643;48.824;11.422;2024-03-06T13:28:32;9.80;99.90
17053;DHT22;8643;48.824;11.422;2024-03-06T13:31:01;9.90;99.90
17053;DHT22;8643;48.824;11.422;2024-03-06T13:33:30;9.90;99.90
17053;DHT22;8643;48.824;11.422;2024-03-06T13:36:00;10.00;99.90
17053;DHT22;8643;48.824;11.422;2024-03-06T13:38:32;10.00;99.90
17053;DHT22;8643;48.824;11.422;2024-03-06T13:41:00;10.10;99.90
17053;DHT22;8643;48.824;11.422;2024-03-06T13:43:30;10.00;99.90
17053;DHT22;8643;48.824;11.422;2024-03-06T13:45:59;10.10;99.90
17053;DHT22;8643;48.824;11.422;2024-03-06T13:48:28;10.10;99.90
17053;DHT22;8643;48.824;11.422;2024-03-06T13:51:00;10.20;99.90
17053;DHT22;8643;48.824;11.422;2024-03-06T13:53:29;10.30;99.90
17053;DHT22;8643;48.824;11.422;2024-03-06T13:55:58;10.30;99.90
17053;DHT22;8643;48.824;11.422;2024-03-06T13:58:27;10.40;99.90
17053;DHT22;8643;48.824;11.422;2024-03-06T14:00:56;10.50;99.90
17053;DHT22;8643;48.824;11.422;2024-03-06T14:03:25;10.50;99.90
17053;DHT22;8643;48.824;11.422;2024-03-06T14:05:54;10.50;99.90
17053;DHT22;8643;48.824;11.422;2024-03-06T14:08:24;10.50;99.90
17053;DHT22;8643;48.824;11.422;2024-03-06T14:10:53;10.50;99.90
17053;DHT22;8643;48.824;11.422;2024-03-06T14:13:22;10.50;99.90
17053;DHT22;8643;48.824;11.422;2024-03-06T14:15:51;10.40;99.90
17053;DHT22;8643;48.824;11.422;2024-03-06T14:18:20;10.30;99.90
17053;DHT22;8643;48.824;11.422;2024-03-06T14:20:49;10.30;99.90
17053;DHT22;8643;48.824;11.422;2024-03-06T14:23:18;10.20;99.90
17053;DHT22;8643;48.824;11.422;2024-03-06T14:25:49;10.20;99.90
17053;DHT22;8643;48.824;11.422;2024-03-06T14:28:18;10.10;99.90
17053;DHT22;8643;48.824;11.422;2024-03-06T14:30:47;10.10;99.90
17053;DHT22;8643;48.824;11.422;2024-03-06T14:33:16;10.10;99.90
17053;DHT22;8643;48.824;11.422;2024-03-06T14:35:45;10.10;99.90
17053;DHT22;8643;48.824;11.422;2024-03-06T14:38:16;10.10;99.90
17053;DHT22;8643;48.824;11.422;2024-03-06T14:40:45;10.20;99.90
17053;DHT22;8643;48.824;11.422;2024-03-06T14:43:15;10.20;99.90
17053;DHT22;8643;48.824;11.422;2024-03-06T14:45:45;10.20;99.90
17053;DHT22;8643;48.824;11.422;2024-03-06T14:48:13;10.20;99.90
17053;DHT22;8643;48.824;11.422;2024-03-06T14:50:42;10.30;99.90
17053;DHT22;8643;48.824;11.422;2024-03-06T14:53:11;10.30;99.90
17053;DHT22;8643;48.824;11.422;2024-03-06T14:55:40;10.30;99.90
17053;DHT22;8643;48.824;11.422;2024-03-06T14:58:08;10.30;99.90
17053;DHT22;8643;48.824;11.422;2024-03-06T15:00:38;10.40;99.90
17053;DHT22;8643;48.824;11.422;2024-03-06T15:03:07;10.30;99.90
17053;DHT22;8643;48.824;11.422;2024-03-06T15:05:36;10.30;99.90
17053;DHT22;8643;48.824;11.422;2024-03-06T15:08:05;10.20;99.90
17053;DHT22;8643;48.824;11.422;2024-03-06T15:10:34;10.10;99.90
17053;DHT22;8643;48.824;11.422;2024-03-06T15:13:03;10.10;99.90
17053;DHT22;8643;48.824;11.422;2024-03-06T15:15:32;10.00;99.90
17053;DHT22;8643;48.824;11.422;2024-03-06T15:18:02;10.10;99.90
17053;DHT22;8643;48.824;11.422;2024-03-06T15:20:33;10.10;99.90
17053;DHT22;8643;48.824;11.422;2024-03-06T15:23:01;10.00;99.90
17053;DHT22;8643;48.824;11.422;2024-03-06T15:25:31;9.90;99.90
17053;DHT22;8643;48.824;11.422;2024-03-06T15:28:00;9.90;99.90
17053;DHT22;8643;48.824;11.422;2024-03-06T15:30:29;9.90;99.90
17053;DHT22;8643;48.824;11.422;2024-03-06T15:33:03;9.90;99.90
17053;DHT22;8643;48.824;11.422;2024-03-06T15:35:32;9.90;99.90
17053;DHT22;8643;48.824;11.422;2024-03-06T15:38:01;9.80;99.90
17053;DHT22;8643;48.824;11.422;2024-03-06T15:40:31;9.80;99.90
17053;DHT22;8643;48.824;11.422;2024-03-06T15:42:59;9.80;99.90
17053;DHT22;8643;48.824;11.422;2024-03-06T15:45:28;9.80;99.90
17053;DHT22;8643;48.824;11.422;2024-03-06T15:47:56;9.70;99.90
17053;DHT22;8643;48.824;11.422;2024-03-06T15:50:26;9.70;99.90
17053;DHT22;8643;48.824;11.422;2024-03-06T15:52:55;9.60;99.90
17053;DHT22;8643;48.824;11.422;2024-03-06T15:55:23;9.70;99.90
17053;DHT22;8643;48.824;11.422;2024-03-06T15:57:51;9.60;99.90
17053;DHT22;8643;48.824;11.422;2024-03-06T16:00:20;9.50;99.90
17053;DHT22;8643;48.824;11.422;2024-03-06T16:02:48;9.50;99.90
17053;DHT22;8643;48.824;11.422;2024-03-06T16:05:17;9.60;99.90
17053;DHT22;8643;48.824;11.422;2024-03-06T16:07:47;9.40;99.90
17053;DHT22;8643;48.824;11.422;2024-03-06T16:10:29;9.40;99.90
17053;DHT22;8643;48.824;11.422;2024-03-06T16:12:57;9.30;99.90
17053;DHT22;8643;48.824;11.422;2024-03-06T16:15:26;8.50;99.90
17053;DHT22;8643;48.824;11.422;2024-03-06T16:17:54;9.20;99.90